Portada
METAR-TAF:

METAR-TAF

Aeroports :

Aneityum, Vanuatu

latitud: 20-14-57S, longitud: 169-46-17E, altitud: 2 m

Observació

L'informe es va fer fa 2 hores i 13 minuts, a les 06:00 UTC
Vent 6 kt del Sud-Est
Temperatura 22°C
Humitat 73%
Pressió 1017 hPa
Visibilitat 10 km o més
Cel ennuvolat a una alçada de 2000 ft

METAR: NVVA 080600Z 14006KT 9999 BKN020 22/17 Q1017

Hora: 19:13 (08:13 UTC)

Pronòstic

L'informe es va fer fa 3 hores i 43 minuts, a les 04:30 UTC
Pronòstic vàlid del 08 a les 06 UTC al 09 a les 06 UTC
Vent 6 kt del Sud-Est
Visibilitat: 9000 m
Núvols disperses a una alçada de 2000 ft
Cel ennuvolat a una alçada de 4000 ft
Cel ennuvolat a una alçada de 1800 ft
xàfecs de pluja

TAF: NVVA 080430Z 0806/0906 13006KT 9999 SCT020 BKN040 INTER 0806/0812 9000 -SHRA BKN018

Observacions i pronòstics meteorològics de més de 4000 aeroports (METAR i TAF).

Les estacions disponibles són els punts grocs i vermells al mapa.

Posi el ratolí al punt desitjat per veure el nom de l'estació.

Feu clic per veure les observacions i els pronòstics meteorològics.

Per canviar el mapa: feu clic els botons verds amb una creu de color negre per apropar; al botó verd amb un guió per allunyar la imatge; o en les fletxes verdes per a mapes adjacents.


METAR-TAF: